< < Back
Terminal Aerodrome Forecast


Current Version              Previous Versions:   1  2  3  4  5  6  7  8  9  

Terminal Aerodrome Forecast

703
FTUS42 KGSP 211749 CCA
TAFGSP
TAF COR
KGSP 211749Z 2118/2218 28006KT P6SM FEW050
     FM212100 30010G18KT P6SM SCT050
     FM220100 32009KT P6SM FEW250
     FM220900 35003KT P6SM FEW040
     FM221200 35005KT P6SM SKC=



Latest METAR

853
SAUS70 KWBC 221100 RRD
MTRGSP
METAR KGSP 221053Z 02005KT 10SM SCT049 12/07 A3013 RMK AO2 SLP195
T01220072


USA.gov is the U.S. government's official web portal to all federal, state and local government web resources and services.